Weather at Zlatibor Sport Airstrip (U.C.)

Public forecast

Using degrees Celsius for public forecast. Weather courtesy of forecast.io.

Closest aviation weather report (METAR) to Zlatibor Sport Airstrip (U.C.)

Closest report is Morava Airport, 39.8 nm (73.6 km) E.

2024/05/25 10:30 (retrieved 15 minutes ago)

LYKV 251030Z 12011KT 080V150 9999 FEW043 24/12 Q1016 NOSIG

Closest aviation forecast (TAF) to Zlatibor Sport Airstrip (U.C.)

Closest forecast is Morava Airport, 39.8 nm (73.6 km) E.

2024/05/25 06:00 (retrieved 5 hours ago)

TAF LYKV 250500Z 2506/2606 VRB02KT 1500 BR BKN003 TX25/2513Z TN13/2603Z BECMG 2506/2507 CAVOK BECMG 2508/2510 12012KT BECMG 2517/2519 06004KT